Time;durP1;ratioP1;P1;durP2;ratioP2;P2;SDS_P1;SDS_P2;PMS_P1;PMS_P2;Temp;Humidity;BMP_temperature;BMP_pressure;BME280_temperature;BME280_humidity;BME280_pressure;Samples;Min_cycle;Max_cycle;Signal;HPM_P1;HPM_P2
2022/02/10 00:06:19;;;;;;;;;;;;;;;;;;7394428;19;2133;-42
2022/02/10 00:14:54;;;;;;;;;;;;;;;;;;7390859;19;2092;-43
2022/02/10 00:20:15;;;;;;;;;;;;;;;;;;7392103;19;2233;-42
2022/02/10 00:35:01;;;;;;;;;;;;;;;;;;7393000;19;2115;-40
2022/02/10 00:37:37;;;;;;;;;;;;;;;;;;7391430;19;2178;-41
2022/02/10 00:42:34;;;;;;;;;;;;;;;;;;7392742;19;2209;-41
2022/02/10 00:45:01;;;;;;;;;;;;;;;;;;7395665;19;2189;-41
2022/02/10 00:47:31;;;;;;;;;;;;;;;;;;7393252;19;2089;-43
2022/02/10 00:50:02;;;;;;;;;;;;;;;;;;7392351;19;2231;-41
2022/02/10 00:52:29;;;;;;;;;;;;;;;;;;7392489;19;2098;-42
2022/02/10 00:54:56;;;;;;;;;;;;;;;;;;7392338;19;2277;-41
2022/02/10 00:57:24;;;;;;;;;;;;;;;;;;7390530;19;2201;-42
2022/02/10 01:29:41;;;;;;;;;;;;;;;;;;7391524;19;2451;-44
2022/02/10 01:32:08;;;;;;;;;;;;;;;;;;7389051;19;2082;-42
2022/02/10 01:34:42;;;;;;;;;;;;;;;;;;7390327;19;2167;-44
2022/02/10 01:37:10;;;;;;;;;;;;;;;;;;7389949;19;2068;-45
2022/02/10 01:39:43;;;;;;;;;;;;;;;;;;7391146;19;2260;-41
2022/02/10 02:03:19;;;;;;;;;;;;;;;;;;7390648;19;2133;-43
2022/02/10 02:04:10;;;;;;;;;;;;;;;;;;7389284;19;2162;-42
2022/02/10 02:06:45;;;;;;;;;;;;;;;;;;7390167;19;2085;-44
2022/02/10 02:09:14;;;;;;;;;;;;;;;;;;7393849;19;2063;-42
2022/02/10 02:11:45;;;;;;;;;;;;;;;;;;7390281;19;2161;-44
2022/02/10 02:14:17;;;;;;;;;;;;;;;;;;7390272;19;2172;-42
2022/02/10 02:16:48;;;;;;;;;;;;;;;;;;7389234;19;2186;-46
2022/02/10 02:19:16;;;;;;;;;;;;;;;;;;7390301;19;2286;-43
2022/02/10 02:21:43;;;;;;;;;;;;;;;;;;7394207;19;2101;-42
2022/02/10 02:24:19;;;;;;;;;;;;;;;;;;7389683;19;2107;-43
2022/02/10 02:26:47;;;;;;;;;;;;;;;;;;7390016;19;2230;-43
2022/02/10 02:29:28;;;;;;;;;;;;;;;;;;7389940;19;2169;-43
2022/02/10 02:31:58;;;;;;;;;;;;;;;;;;7390346;19;2183;-44
2022/02/10 03:04:58;;;;;;;;;;;;;;;;;;7396322;19;2106;-41
2022/02/10 03:08:00;;;;;;;;;;;;;;;;;;7396104;19;2227;-43
2022/02/10 03:12:48;;;;;;;;;;;;;;;;;;7396867;19;2173;-42
2022/02/10 03:15:26;;;;;;;;;;;;;;;;;;7394414;19;2395;-44
2022/02/10 04:02:38;;;;;;;;;;;;;;;;;;7394583;19;2127;-42
2022/02/10 04:08:03;;;;;;;;;;;;;;;;;;7394625;19;2176;-42
2022/02/10 04:16:12;;;;;;;;;;;;;;;;;;7390090;19;1549;-45
2022/02/10 04:21:19;;;;;;;;;;;;;;;;;;7393337;19;2159;-46
2022/02/10 04:53:08;;;;;;;;;;;;;;;;;;7395199;19;2337;-40
2022/02/10 05:15:18;;;;;;;;;;;;;;;;;;7390061;19;2372;-42
2022/02/10 05:23:04;;;;;;;;;;;;;;;;;;7391243;19;2043;-43
2022/02/10 05:33:57;;;;;;;;;;;;;;;;;;7391220;19;2210;-43
2022/02/10 05:36:29;;;;;;;;;;;;;;;;;;7391165;19;2218;-43
2022/02/10 05:39:10;;;;;;;;;;;;;;;;;;7389419;19;2198;-45
2022/02/10 05:58:07;;;;;;;;;;;;;;;;;;7390017;19;2200;-40
2022/02/10 06:56:15;;;;;;;;;;;;;;;;;;7396236;19;2304;-47
2022/02/10 07:09:03;;;;;;;;;;;;;;;;;;7395779;19;2125;-43
2022/02/10 07:17:16;;;;;;;;;;;;;;;;;;7392668;19;2159;-42
2022/02/10 07:58:26;;;;;;;;;;;;;;;;;;7393487;19;2181;-44
2022/02/10 08:56:22;;;;;;;;;;;;;;;;;;7392871;19;2155;-43
2022/02/10 09:01:43;;;;;;;;;;;;;;;;;;7392302;19;2168;-42
2022/02/10 09:07:03;;;;;;;;;;;;;;;;;;7391909;19;2256;-41
2022/02/10 09:10:11;;;;;;;;;;;;;;;;;;7392272;19;2140;-42
2022/02/10 09:15:52;;;;;;;;;;;;;;;;;;7391142;19;2082;-45
2022/02/10 10:00:35;;;;;;;;;;;;;;;;;;7422425;19;1154;-40
2022/02/10 10:03:09;;;;;;;;;;;;;;;;;;7426572;19;922;-41
2022/02/10 10:05:43;;;;;;;;;;;;;;;;;;7425779;19;858;-46
2022/02/10 10:08:23;;;;;;;;;;;;;;;;;;7425784;19;957;-44
2022/02/10 10:11:08;;;;;;;;;;;;;;;;;;7423485;19;1853;-45
2022/02/10 10:14:00;;;;;;;;;;;;;;;;;;7425879;19;923;-42
2022/02/10 10:19:37;;;;;;;;;;;;;;;;;;7425948;19;950;-41
2022/02/10 10:22:21;;;;;;;;;;;;;;;;;;7425848;19;886;-47
2022/02/10 10:44:15;;;;;;;;;;;;;;;;;;7425558;19;1029;-41
2022/02/10 10:53:34;;;;;;;;;;;;;;;;;;7424674;19;962;-42
2022/02/10 10:56:15;;;;;;;;;;;;;;;;;;7424998;19;973;-41
2022/02/10 11:41:49;;;;;;;;;;;;;;;;;;7394464;19;1316;-45
2022/02/10 13:23:25;;;;;;;;;;;;;;;;;;7391576;19;1263;-44
2022/02/10 13:32:41;;;;;;;;;;;;;;;;;;7390494;19;2361;-48
2022/02/10 14:18:26;;;;;;;;;;;;;;;;;;7389982;19;966;-41
2022/02/10 14:25:40;;;;;;;;;;;;;;;;;;7390068;19;933;-45
2022/02/10 14:26:45;;;;;;;;;;;;;;;;;;7392078;19;997;-44
2022/02/10 14:29:13;;;;;;;;;;;;;;;;;;7390137;19;961;-43
2022/02/10 14:31:41;;;;;;;;;;;;;;;;;;7387932;19;1839;-43
2022/02/10 14:34:08;;;;;;;;;;;;;;;;;;7390104;19;977;-46
2022/02/10 14:36:43;;;;;;;;;;;;;;;;;;7392141;19;998;-47
2022/02/10 14:39:51;;;;;;;;;;;;;;;;;;7397220;19;970;-42
2022/02/10 15:49:39;;;;;;;;;;;;;;;;;;7394039;19;1327;-42
2022/02/10 15:52:56;;;;;;;;;;;;;;;;;;7390874;19;1864;-43
2022/02/10 16:17:04;;;;;;;;;;;;;;;;;;7394082;19;946;-45
2022/02/10 16:19:33;;;;;;;;;;;;;;;;;;7393388;19;939;-44
2022/02/10 16:24:35;;;;;;;;;;;;;;;;;;7389445;19;966;-48
2022/02/10 16:27:37;;;;;;;;;;;;;;;;;;7389769;19;926;-48
2022/02/10 16:30:01;;;;;;;;;;;;;;;;;;7389033;19;1414;-41
2022/02/10 16:32:48;;;;;;;;;;;;;;;;;;7389659;19;878;-42
2022/02/10 16:35:35;;;;;;;;;;;;;;;;;;7389150;19;1251;-47
2022/02/10 16:38:22;;;;;;;;;;;;;;;;;;7393001;19;891;-50
2022/02/10 16:41:09;;;;;;;;;;;;;;;;;;7392513;19;875;-46
2022/02/10 16:43:56;;;;;;;;;;;;;;;;;;7393581;19;1101;-44
2022/02/10 16:46:44;;;;;;;;;;;;;;;;;;7392739;19;1273;-50
2022/02/10 16:49:32;;;;;;;;;;;;;;;;;;7392352;19;1159;-49
2022/02/10 16:52:28;;;;;;;;;;;;;;;;;;7391533;19;1837;-47
2022/02/10 17:28:55;;;;;;;;;;;;;;;;;;7389714;19;1429;-42
2022/02/10 17:31:47;;;;;;;;;;;;;;;;;;7390694;19;1857;-50
2022/02/10 17:34:26;;;;;;;;;;;;;;;;;;7391851;19;1788;-44
2022/02/10 17:53:27;;;;;;;;;;;;;;;;;;7390921;19;970;-46
2022/02/10 17:55:55;;;;;;;;;;;;;;;;;;7388793;19;937;-49
2022/02/10 17:58:23;;;;;;;;;;;;;;;;;;7390344;19;871;-45
2022/02/10 18:00:51;;;;;;;;;;;;;;;;;;7389693;19;1026;-48
2022/02/10 18:03:19;;;;;;;;;;;;;;;;;;7390392;19;938;-46
2022/02/10 18:08:42;;;;;;;;;;;;;;;;;;7389680;19;1133;-43
2022/02/10 18:11:45;;;;;;;;;;;;;;;;;;7390647;19;1845;-46
2022/02/10 18:14:16;;;;;;;;;;;;;;;;;;7396555;19;1524;-48
2022/02/10 18:16:51;;;;;;;;;;;;;;;;;;7397975;19;1057;-45
2022/02/10 19:07:51;;;;;;;;;;;;;;;;;;7395770;19;1995;-47
2022/02/10 19:10:21;;;;;;;;;;;;;;;;;;7395975;19;2030;-50
2022/02/10 19:12:53;;;;;;;;;;;;;;;;;;7389460;19;2115;-46
2022/02/10 19:15:23;;;;;;;;;;;;;;;;;;7395379;19;2387;-45
2022/02/10 19:17:52;;;;;;;;;;;;;;;;;;7395262;19;2201;-46
2022/02/10 19:20:20;;;;;;;;;;;;;;;;;;7395608;19;2171;-48
2022/02/10 19:22:48;;;;;;;;;;;;;;;;;;7394565;19;2498;-51
2022/02/10 19:25:16;;;;;;;;;;;;;;;;;;7395307;19;2266;-50
2022/02/10 19:27:43;;;;;;;;;;;;;;;;;;7395265;19;2213;-47
2022/02/10 19:30:12;;;;;;;;;;;;;;;;;;7393513;19;2216;-48
2022/02/10 19:32:43;;;;;;;;;;;;;;;;;;7394072;19;2328;-49
2022/02/10 19:35:13;;;;;;;;;;;;;;;;;;7395841;19;2115;-51
2022/02/10 19:37:41;;;;;;;;;;;;;;;;;;7395312;19;2313;-48
2022/02/10 19:40:10;;;;;;;;;;;;;;;;;;7395048;19;1938;-51
2022/02/10 19:42:40;;;;;;;;;;;;;;;;;;7394384;19;2305;-49
2022/02/10 19:45:08;;;;;;;;;;;;;;;;;;7397148;19;2418;-45
2022/02/10 19:47:37;;;;;;;;;;;;;;;;;;7393959;19;2017;-49
2022/02/10 19:50:13;;;;;;;;;;;;;;;;;;7392920;19;2311;-48
2022/02/10 19:52:43;;;;;;;;;;;;;;;;;;7393373;19;2451;-47
2022/02/10 19:55:17;;;;;;;;;;;;;;;;;;7392934;19;2282;-49
2022/02/10 19:57:45;;;;;;;;;;;;;;;;;;7394179;19;1943;-43
2022/02/10 20:00:17;;;;;;;;;;;;;;;;;;7394662;19;1939;-50
2022/02/10 20:02:44;;;;;;;;;;;;;;;;;;7394747;19;2275;-43
2022/02/10 20:05:21;;;;;;;;;;;;;;;;;;7394286;19;2160;-50
2022/02/10 20:07:51;;;;;;;;;;;;;;;;;;7393617;19;2143;-48
2022/02/10 20:10:18;;;;;;;;;;;;;;;;;;7394168;19;2303;-54
2022/02/10 20:12:47;;;;;;;;;;;;;;;;;;7392469;19;2342;-48
2022/02/10 20:15:14;;;;;;;;;;;;;;;;;;7395075;19;2387;-45
2022/02/10 20:17:42;;;;;;;;;;;;;;;;;;7394128;19;2290;-50
2022/02/10 20:20:10;;;;;;;;;;;;;;;;;;7393146;19;1625;-48
2022/02/10 20:22:41;;;;;;;;;;;;;;;;;;7393859;19;2392;-45
2022/02/10 20:25:28;;;;;;;;;;;;;;;;;;7392754;19;2192;-47
2022/02/10 20:27:55;;;;;;;;;;;;;;;;;;7393196;19;2009;-49
2022/02/10 20:30:24;;;;;;;;;;;;;;;;;;7393654;19;2212;-51
2022/02/10 20:32:51;;;;;;;;;;;;;;;;;;7389712;19;2307;-45
2022/02/10 20:35:20;;;;;;;;;;;;;;;;;;7391477;19;2369;-48
2022/02/10 20:37:47;;;;;;;;;;;;;;;;;;7393476;19;2153;-48
2022/02/10 20:40:14;;;;;;;;;;;;;;;;;;7391203;19;2258;-47
2022/02/10 20:42:41;;;;;;;;;;;;;;;;;;7393533;19;2206;-47
2022/02/10 20:45:09;;;;;;;;;;;;;;;;;;7395072;19;2287;-50
2022/02/10 20:47:36;;;;;;;;;;;;;;;;;;7392321;19;1797;-48
2022/02/10 20:50:07;;;;;;;;;;;;;;;;;;7390871;19;2512;-46
2022/02/10 20:52:35;;;;;;;;;;;;;;;;;;7391648;19;2364;-42
2022/02/10 20:55:03;;;;;;;;;;;;;;;;;;7392354;19;2294;-46
2022/02/10 20:57:30;;;;;;;;;;;;;;;;;;7392119;19;2205;-47
2022/02/10 20:59:57;;;;;;;;;;;;;;;;;;7392196;19;1934;-45
2022/02/10 21:02:38;;;;;;;;;;;;;;;;;;7392289;19;2357;-44
2022/02/10 21:08:34;;;;;;;;;;;;;;;;;;7391272;19;2218;-47
2022/02/10 21:10:48;;;;;;;;;;;;;;;;;;7391386;19;2439;-43
2022/02/10 21:13:16;;;;;;;;;;;;;;;;;;7390857;19;2433;-49
2022/02/10 21:15:47;;;;;;;;;;;;;;;;;;7392366;19;2666;-51
2022/02/10 21:18:15;;;;;;;;;;;;;;;;;;7392475;19;1738;-50
2022/02/10 21:20:44;;;;;;;;;;;;;;;;;;7391023;19;2031;-48
2022/02/10 21:23:29;;;;;;;;;;;;;;;;;;7391317;19;2182;-48
2022/02/10 21:25:58;;;;;;;;;;;;;;;;;;7391455;19;2089;-49
2022/02/10 21:28:29;;;;;;;;;;;;;;;;;;7391686;19;2327;-49
2022/02/10 21:31:01;;;;;;;;;;;;;;;;;;7391071;19;2195;-49
2022/02/10 21:44:57;;;;;;;;;;;;;;;;;;7392149;19;2196;-50
2022/02/10 21:52:48;;;;;;;;;;;;;;;;;;7390756;19;2337;-50
2022/02/10 22:07:11;;;;;;;;;;;;;;;;;;7389573;19;1968;-48
2022/02/10 22:12:07;;;;;;;;;;;;;;;;;;7389895;19;2325;-45
2022/02/10 22:18:08;;;;;;;;;;;;;;;;;;7390426;19;2338;-48
2022/02/10 22:20:30;;;;;;;;;;;;;;;;;;7390621;19;2182;-45
2022/02/10 22:23:07;;;;;;;;;;;;;;;;;;7390110;19;2267;-47
2022/02/10 22:25:35;;;;;;;;;;;;;;;;;;7389955;19;2239;-49
2022/02/10 22:28:13;;;;;;;;;;;;;;;;;;7389750;19;2338;-46
2022/02/10 22:30:51;;;;;;;;;;;;;;;;;;7389625;19;2328;-45
2022/02/10 22:36:11;;;;;;;;;;;;;;;;;;7387566;19;2151;-51
2022/02/10 22:38:39;;;;;;;;;;;;;;;;;;7389695;19;2061;-49
2022/02/10 22:41:10;;;;;;;;;;;;;;;;;;7389743;19;1995;-50
2022/02/10 22:43:38;;;;;;;;;;;;;;;;;;7393171;19;2231;-49
2022/02/10 22:46:06;;;;;;;;;;;;;;;;;;7388931;19;2296;-51
2022/02/10 22:48:33;;;;;;;;;;;;;;;;;;7389307;19;2225;-50
2022/02/10 22:51:01;;;;;;;;;;;;;;;;;;7386055;19;2224;-46
2022/02/10 22:53:28;;;;;;;;;;;;;;;;;;7387570;19;2049;-49
2022/02/10 22:55:55;;;;;;;;;;;;;;;;;;7388480;19;2292;-44
2022/02/10 22:58:23;;;;;;;;;;;;;;;;;;7394387;19;2244;-43
2022/02/10 23:00:50;;;;;;;;;;;;;;;;;;7396510;19;2255;-45
2022/02/10 23:03:21;;;;;;;;;;;;;;;;;;7396544;19;2655;-48
2022/02/10 23:05:49;;;;;;;;;;;;;;;;;;7395966;19;2348;-50
2022/02/10 23:08:17;;;;;;;;;;;;;;;;;;7394627;19;2309;-45
2022/02/10 23:10:46;;;;;;;;;;;;;;;;;;7395783;19;2373;-48
2022/02/10 23:13:15;;;;;;;;;;;;;;;;;;7393917;19;2123;-49
2022/02/10 23:15:43;;;;;;;;;;;;;;;;;;7395861;19;2294;-45
2022/02/10 23:18:21;;;;;;;;;;;;;;;;;;7395782;19;2176;-46
2022/02/10 23:20:49;;;;;;;;;;;;;;;;;;7395462;19;2258;-47
2022/02/10 23:23:17;;;;;;;;;;;;;;;;;;7395063;19;2273;-48
2022/02/10 23:25:45;;;;;;;;;;;;;;;;;;7394920;19;2199;-50
2022/02/10 23:28:14;;;;;;;;;;;;;;;;;;7395916;19;1901;-48
2022/02/10 23:30:46;;;;;;;;;;;;;;;;;;7395086;19;2444;-45
2022/02/10 23:33:26;;;;;;;;;;;;;;;;;;7393698;19;2155;-48
2022/02/10 23:38:42;;;;;;;;;;;;;;;;;;7394882;19;2382;-46
2022/02/10 23:41:50;;;;;;;;;;;;;;;;;;7395159;19;2307;-45
2022/02/10 23:44:17;;;;;;;;;;;;;;;;;;7395245;19;2200;-47
2022/02/10 23:46:45;;;;;;;;;;;;;;;;;;7393967;19;2285;-44
2022/02/10 23:49:15;;;;;;;;;;;;;;;;;;7393804;19;2013;-45
2022/02/10 23:51:54;;;;;;;;;;;;;;;;;;7393915;19;2178;-45
2022/02/10 23:54:22;;;;;;;;;;;;;;;;;;7392728;19;2293;-43
2022/02/10 23:57:14;;;;;;;;;;;;;;;;;;7394563;19;2015;-48
